createdAt,value
2022-12-18T00:01:35.547Z,65.21
2022-12-18T00:04:06.872Z,65.36
2022-12-18T00:06:41.885Z,64.75
2022-12-18T00:09:12.304Z,64.83
2022-12-18T00:11:43.641Z,65.38
2022-12-18T00:14:15.728Z,65.07
2022-12-18T00:16:48.437Z,65.42
2022-12-18T00:22:15.323Z,65.67
2022-12-18T00:24:47.913Z,64.65
2022-12-18T00:27:17.933Z,65.56
2022-12-18T00:29:50.596Z,64.51
2022-12-18T00:32:22.894Z,65.64
2022-12-18T00:34:50.032Z,65.69
2022-12-18T00:37:20.223Z,64.58
2022-12-18T00:39:56.653Z,64.01
2022-12-18T00:43:05.011Z,63.88
2022-12-18T00:45:35.125Z,63.64
2022-12-18T00:48:09.556Z,62.58
2022-12-18T00:50:39.410Z,63.02
2022-12-18T00:53:06.256Z,63.21
2022-12-18T00:55:41.822Z,62.52
2022-12-18T00:58:14.495Z,62.52
2022-12-18T01:00:45.648Z,62.97
2022-12-18T01:03:15.295Z,63.41
2022-12-18T01:05:52.014Z,63.54
2022-12-18T01:08:44.002Z,61.89
2022-12-18T01:11:19.636Z,61.77
2022-12-18T01:13:54.171Z,62.33
2022-12-18T01:16:30.171Z,62.35
2022-12-18T01:19:00.965Z,62.30
2022-12-18T01:21:56.100Z,62.82
2022-12-18T01:24:27.910Z,63.91
2022-12-18T01:26:57.882Z,63.07
2022-12-18T01:29:26.927Z,63.68
2022-12-18T01:31:57.166Z,63.17
2022-12-18T01:34:29.747Z,62.91
2022-12-18T01:36:58.637Z,62.64
2022-12-18T01:39:26.377Z,62.38
2022-12-18T01:42:04.516Z,63.48
2022-12-18T01:45:20.785Z,64.21
2022-12-18T01:48:07.712Z,63.68
2022-12-18T01:50:45.804Z,64.09
2022-12-18T01:53:22.606Z,64.57
2022-12-18T01:56:44.159Z,63.10
2022-12-18T01:59:42.761Z,63.07
2022-12-18T02:02:11.955Z,62.69
2022-12-18T02:04:47.803Z,63.38
2022-12-18T02:07:47.987Z,62.51
2022-12-18T02:10:23.786Z,62.02
2022-12-18T02:13:03.808Z,62.72
2022-12-18T02:15:51.481Z,63.20
2022-12-18T02:18:38.872Z,63.00
2022-12-18T02:24:44.496Z,62.37
2022-12-18T02:27:14.309Z,62.18
2022-12-18T02:29:58.163Z,62.39
2022-12-18T02:32:36.509Z,62.45
2022-12-18T02:35:17.586Z,63.17
2022-12-18T02:37:49.735Z,63.32
2022-12-18T02:40:28.209Z,64.58
2022-12-18T02:42:56.534Z,65.08
2022-12-18T02:45:24.778Z,64.28
2022-12-18T02:47:53.839Z,64.98
2022-12-18T02:53:54.382Z,63.64
2022-12-18T02:57:05.007Z,63.25
2022-12-18T02:59:46.198Z,63.99
2022-12-18T03:02:48.962Z,64.42
2022-12-18T03:05:52.431Z,63.98
2022-12-18T03:08:29.098Z,64.11
2022-12-18T03:11:04.511Z,64.79
2022-12-18T03:14:05.294Z,64.21
2022-12-18T03:16:32.933Z,63.74
2022-12-18T03:22:10.868Z,62.20
2022-12-18T03:25:17.874Z,63.36
2022-12-18T03:27:53.216Z,63.55
2022-12-18T03:30:34.562Z,62.65
2022-12-18T03:33:22.135Z,63.32
2022-12-18T03:37:10.049Z,63.19
2022-12-18T03:40:52.212Z,63.03
2022-12-18T03:50:26.429Z,62.28
2022-12-18T03:53:08.693Z,62.40
2022-12-18T03:55:43.010Z,62.05
2022-12-18T03:58:19.898Z,60.51
2022-12-18T04:01:18.089Z,60.78
2022-12-18T04:04:16.100Z,61.36
2022-12-18T04:09:47.452Z,62.00
2022-12-18T04:15:39.049Z,61.14
2022-12-18T04:18:43.950Z,61.27
2022-12-18T04:21:13.979Z,60.57
2022-12-18T04:23:49.788Z,59.84
2022-12-18T04:26:19.932Z,59.70
2022-12-18T04:29:06.093Z,60.11
2022-12-18T04:32:23.072Z,59.90
2022-12-18T04:34:55.613Z,59.69
2022-12-18T04:37:52.504Z,59.83
2022-12-18T04:40:20.664Z,59.10
2022-12-18T04:43:18.352Z,58.55
2022-12-18T04:45:58.631Z,58.75
2022-12-18T04:48:53.718Z,58.46
2022-12-18T04:51:26.606Z,58.20
2022-12-18T04:54:24.274Z,58.70
2022-12-18T04:56:54.022Z,59.02
2022-12-18T05:00:18.202Z,57.74
2022-12-18T05:03:10.635Z,58.62
2022-12-18T05:06:03.022Z,58.44
2022-12-18T05:08:31.707Z,57.93
2022-12-18T05:11:11.583Z,58.48
2022-12-18T05:13:42.560Z,58.29
2022-12-18T05:22:51.468Z,59.00
2022-12-18T05:26:08.840Z,58.41
2022-12-18T05:44:47.827Z,58.13
2022-12-18T05:47:14.806Z,57.23
2022-12-18T05:49:41.473Z,56.54
2022-12-18T05:52:08.524Z,56.89
2022-12-18T05:54:35.324Z,56.65
2022-12-18T05:57:02.270Z,56.42
2022-12-18T05:59:29.066Z,55.98
2022-12-18T06:01:56.052Z,57.22
2022-12-18T06:04:23.898Z,55.97
2022-12-18T06:06:50.700Z,56.09
2022-12-18T06:09:17.427Z,56.02
2022-12-18T06:11:44.382Z,56.42
2022-12-18T06:14:11.262Z,55.99
2022-12-18T06:16:38.177Z,55.86
2022-12-18T06:19:06.478Z,56.23
2022-12-18T06:21:34.013Z,57.48
2022-12-18T06:24:02.030Z,56.54
2022-12-18T06:26:28.872Z,55.83
2022-12-18T06:28:57.119Z,56.20
2022-12-18T06:31:24.418Z,56.02
2022-12-18T06:33:51.330Z,55.43
2022-12-18T06:36:18.277Z,56.21
2022-12-18T06:38:45.242Z,56.06
2022-12-18T06:41:22.398Z,56.40
2022-12-18T06:43:49.255Z,56.14
2022-12-18T06:46:16.791Z,55.76
2022-12-18T06:48:49.616Z,55.45
2022-12-18T06:51:21.674Z,56.18
2022-12-18T06:53:49.277Z,55.30
2022-12-18T06:56:16.097Z,55.55
2022-12-18T06:58:43.049Z,55.96
2022-12-18T07:01:12.370Z,55.32
2022-12-18T07:03:41.000Z,54.99
2022-12-18T07:06:14.940Z,55.48
2022-12-18T07:08:41.754Z,55.57
2022-12-18T07:11:08.747Z,55.70
2022-12-18T07:13:35.586Z,54.11
2022-12-18T07:16:19.679Z,54.73
2022-12-18T07:18:51.258Z,54.69
2022-12-18T07:21:20.670Z,54.71
2022-12-18T07:23:49.194Z,54.50
2022-12-18T07:26:19.921Z,52.77
2022-12-18T07:28:47.413Z,54.08
2022-12-18T07:31:19.954Z,53.64
2022-12-18T07:33:49.266Z,54.35
2022-12-18T07:36:16.574Z,53.99
2022-12-18T07:38:43.515Z,52.91
2022-12-18T07:41:13.175Z,53.82
2022-12-18T07:43:41.802Z,53.53
2022-12-18T07:46:10.703Z,54.19
2022-12-18T07:48:39.692Z,54.36
2022-12-18T07:51:08.204Z,54.98
2022-12-18T07:53:36.813Z,54.29
2022-12-18T07:56:29.096Z,53.98
2022-12-18T07:58:57.586Z,55.47
2022-12-18T08:01:24.756Z,55.53
2022-12-18T08:03:51.857Z,55.50
2022-12-18T08:06:21.839Z,55.06
2022-12-18T08:08:56.198Z,55.61
2022-12-18T08:11:24.801Z,55.04
2022-12-18T08:13:51.731Z,55.20
2022-12-18T08:16:19.256Z,55.64
2022-12-18T08:18:46.963Z,56.13
2022-12-18T08:21:13.820Z,56.86
2022-12-18T08:23:43.418Z,58.03
2022-12-18T08:26:12.672Z,55.27
2022-12-18T08:28:40.255Z,56.48
2022-12-18T08:31:07.491Z,57.00
2022-12-18T08:33:36.138Z,57.57
2022-12-18T08:36:03.423Z,57.19
2022-12-18T08:38:30.178Z,56.85
2022-12-18T08:41:05.273Z,56.93
2022-12-18T08:43:50.856Z,58.86
2022-12-18T08:46:18.839Z,56.59
2022-12-18T08:48:45.597Z,58.62
2022-12-18T08:51:12.582Z,54.50
2022-12-18T08:53:40.853Z,55.23
2022-12-18T08:56:08.574Z,55.12
2022-12-18T08:58:35.358Z,54.99
2022-12-18T09:01:07.081Z,55.13
2022-12-18T09:03:34.107Z,54.68
2022-12-18T09:06:00.939Z,54.65
2022-12-18T09:08:28.297Z,54.15
2022-12-18T09:10:55.299Z,53.78
2022-12-18T09:13:23.504Z,53.41
2022-12-18T09:15:55.051Z,54.35
2022-12-18T09:18:23.812Z,53.10
2022-12-18T09:20:52.804Z,52.03
2022-12-18T09:23:20.621Z,52.19
2022-12-18T09:25:48.040Z,52.04
2022-12-18T09:28:17.007Z,51.73
2022-12-18T09:30:50.039Z,51.22
2022-12-18T09:33:18.334Z,51.51
2022-12-18T09:35:46.212Z,51.71
2022-12-18T09:38:17.959Z,50.96
2022-12-18T09:40:54.761Z,51.46
2022-12-18T09:43:28.292Z,52.04
2022-12-18T09:46:00.402Z,51.05
2022-12-18T09:48:32.289Z,51.84
2022-12-18T09:51:04.938Z,52.13
2022-12-18T09:53:36.045Z,51.47
2022-12-18T09:56:06.396Z,52.10
2022-12-18T09:58:41.222Z,53.72
2022-12-18T10:01:15.602Z,53.51
2022-12-18T10:03:45.343Z,52.11
2022-12-18T10:06:20.704Z,50.50
2022-12-18T10:09:06.806Z,50.94
2022-12-18T10:11:43.252Z,50.62
2022-12-18T10:14:22.180Z,50.63
2022-12-18T10:17:00.743Z,50.51
2022-12-18T10:19:34.298Z,50.19
2022-12-18T10:22:17.105Z,49.76
2022-12-18T10:25:05.038Z,49.87
2022-12-18T10:27:32.208Z,50.05
2022-12-18T10:30:02.201Z,49.29
2022-12-18T10:32:31.680Z,49.51
2022-12-18T10:35:00.656Z,49.80
2022-12-18T10:37:30.894Z,49.73
2022-12-18T10:40:22.204Z,48.79
2022-12-18T10:43:12.826Z,48.89
2022-12-18T10:45:41.942Z,48.68
2022-12-18T10:48:22.585Z,48.96
2022-12-18T10:53:42.977Z,49.79
2022-12-18T10:56:10.476Z,49.91
2022-12-18T10:58:39.531Z,49.96
2022-12-18T11:01:06.554Z,50.28
2022-12-18T11:03:37.172Z,48.99
2022-12-18T11:06:25.801Z,50.22
2022-12-18T11:09:25.961Z,49.01
2022-12-18T11:11:55.653Z,50.01
2022-12-18T11:14:47.034Z,51.53
2022-12-18T11:17:34.851Z,50.75
2022-12-18T11:20:07.902Z,48.99
2022-12-18T11:22:38.176Z,50.96
2022-12-18T11:25:35.749Z,48.41
2022-12-18T11:28:28.849Z,49.72
2022-12-18T11:31:13.472Z,49.09
2022-12-18T11:34:04.927Z,49.60
2022-12-18T11:36:43.282Z,49.39
2022-12-18T11:39:33.408Z,50.30
2022-12-18T11:42:12.470Z,49.27
2022-12-18T11:44:55.594Z,49.33
2022-12-18T11:47:38.323Z,49.70
2022-12-18T11:50:14.832Z,49.58
2022-12-18T11:52:42.526Z,49.16
2022-12-18T11:55:29.250Z,49.99
2022-12-18T11:58:11.962Z,49.90
2022-12-18T12:01:16.217Z,49.41
2022-12-18T12:03:55.058Z,49.89
2022-12-18T12:06:30.162Z,50.12
2022-12-18T12:09:24.611Z,49.25
2022-12-18T12:11:54.069Z,49.51
2022-12-18T12:14:44.345Z,49.12
2022-12-18T12:17:23.909Z,48.98
2022-12-18T12:20:03.150Z,49.44
2022-12-18T12:22:55.187Z,50.65
2022-12-18T12:25:49.129Z,51.40
2022-12-18T12:28:53.262Z,51.00
2022-12-18T12:31:53.411Z,50.18
2022-12-18T12:34:26.514Z,49.59
2022-12-18T12:37:16.225Z,50.30
2022-12-18T12:39:45.875Z,50.03
2022-12-18T12:42:39.324Z,50.08
2022-12-18T12:45:07.949Z,49.85
2022-12-18T12:47:41.096Z,50.04
2022-12-18T12:50:16.226Z,50.04
2022-12-18T12:52:54.447Z,49.81
2022-12-18T12:55:25.368Z,49.92
2022-12-18T12:58:11.478Z,51.08
2022-12-18T13:00:55.739Z,53.66
2022-12-18T13:03:58.475Z,50.16
2022-12-18T13:06:51.417Z,49.39
2022-12-18T13:09:18.862Z,48.93
2022-12-18T13:12:06.993Z,50.10
2022-12-18T13:14:41.583Z,50.63
2022-12-18T13:17:22.975Z,50.04
2022-12-18T13:20:03.313Z,49.66
2022-12-18T13:22:40.463Z,49.61
2022-12-18T13:25:30.431Z,49.67
2022-12-18T13:28:21.632Z,50.05
2022-12-18T13:30:57.648Z,50.68
2022-12-18T13:33:30.684Z,50.05
2022-12-18T13:36:18.291Z,49.70
2022-12-18T13:38:45.761Z,49.70
2022-12-18T13:41:15.853Z,50.12
2022-12-18T13:43:48.209Z,50.15
2022-12-18T13:46:43.189Z,50.41
2022-12-18T13:49:13.019Z,49.84
2022-12-18T13:51:49.919Z,49.46
2022-12-18T13:54:17.448Z,49.31
2022-12-18T13:56:46.654Z,49.72
2022-12-18T13:59:24.754Z,49.49
2022-12-18T14:01:53.743Z,48.77
2022-12-18T14:04:24.813Z,49.94
2022-12-18T14:06:57.178Z,49.79
2022-12-18T14:09:27.825Z,49.58
2022-12-18T14:12:15.596Z,49.61
2022-12-18T14:14:46.244Z,49.35
2022-12-18T14:17:13.540Z,49.81
2022-12-18T14:19:49.706Z,50.30
2022-12-18T14:22:30.267Z,48.93
2022-12-18T14:25:14.142Z,49.84
2022-12-18T14:28:03.200Z,50.03
2022-12-18T14:30:38.058Z,49.21
2022-12-18T14:33:16.341Z,48.99
2022-12-18T14:35:58.542Z,49.11
2022-12-18T14:38:38.868Z,49.25
2022-12-18T14:41:17.225Z,49.59
2022-12-18T14:43:46.384Z,48.99
2022-12-18T14:46:46.897Z,49.61
2022-12-18T14:49:33.011Z,48.46
2022-12-18T14:52:07.160Z,48.64
2022-12-18T14:54:38.247Z,48.89
2022-12-18T14:57:24.809Z,49.05
2022-12-18T14:59:52.125Z,47.86
2022-12-18T15:02:25.622Z,48.61
2022-12-18T15:05:29.563Z,47.45
2022-12-18T15:07:58.876Z,47.82
2022-12-18T15:10:29.165Z,47.66
2022-12-18T15:13:02.543Z,47.77
2022-12-18T15:15:41.631Z,46.67
2022-12-18T15:18:08.282Z,46.96
2022-12-18T15:20:51.990Z,46.59
2022-12-18T15:23:20.420Z,45.85
2022-12-18T15:25:49.105Z,47.00
2022-12-18T15:28:34.488Z,46.17
2022-12-18T15:31:07.390Z,47.35
2022-12-18T15:33:40.477Z,47.11
2022-12-18T15:36:15.790Z,46.48
2022-12-18T15:38:48.273Z,46.30
2022-12-18T15:41:20.094Z,45.70
2022-12-18T15:43:52.978Z,46.05
2022-12-18T15:46:25.102Z,48.20
2022-12-18T15:48:58.096Z,47.52
2022-12-18T15:51:38.622Z,48.06
2022-12-18T15:54:11.011Z,47.75
2022-12-18T15:56:56.259Z,48.44
2022-12-18T15:59:24.197Z,47.20
2022-12-18T16:01:56.203Z,47.42
2022-12-18T16:04:23.610Z,47.25
2022-12-18T16:07:13.706Z,48.10
2022-12-18T16:09:38.075Z,50.30
2022-12-18T16:12:05.960Z,51.29
2022-12-18T16:14:33.517Z,48.77
2022-12-18T16:17:03.146Z,49.13
2022-12-18T16:19:30.403Z,48.21
2022-12-18T16:21:59.638Z,48.13
2022-12-18T16:24:29.179Z,47.65
2022-12-18T16:26:58.954Z,48.60
2022-12-18T16:29:28.352Z,48.61
2022-12-18T16:32:00.345Z,48.77
2022-12-18T16:34:35.446Z,48.59
2022-12-18T16:37:06.388Z,49.50
2022-12-18T16:39:37.482Z,48.85
2022-12-18T16:42:08.408Z,48.91
2022-12-18T16:44:35.687Z,48.46
2022-12-18T16:47:03.943Z,48.66
2022-12-18T16:49:31.058Z,54.01
2022-12-18T16:51:58.194Z,50.15
2022-12-18T16:54:30.486Z,49.87
2022-12-18T16:56:58.366Z,49.02
2022-12-18T16:59:26.841Z,48.80
2022-12-18T17:01:55.716Z,49.11
2022-12-18T17:04:23.247Z,49.06
2022-12-18T17:06:51.993Z,50.13
2022-12-18T17:09:28.928Z,50.34
2022-12-18T17:11:56.230Z,50.11
2022-12-18T17:14:24.996Z,49.23
2022-12-18T17:17:19.941Z,49.27
2022-12-18T17:19:40.247Z,49.20
2022-12-18T17:22:08.260Z,49.45
2022-12-18T17:24:35.848Z,48.95
2022-12-18T17:27:03.910Z,48.96
2022-12-18T17:29:30.937Z,48.28
2022-12-18T17:32:00.457Z,47.85
2022-12-18T17:34:28.235Z,48.46
2022-12-18T17:36:55.754Z,48.33
2022-12-18T17:39:23.573Z,48.65
2022-12-18T17:41:50.782Z,47.86
2022-12-18T17:44:18.936Z,47.95
2022-12-18T17:46:46.548Z,51.87
2022-12-18T17:49:14.202Z,52.85
2022-12-18T17:51:44.669Z,49.64
2022-12-18T17:54:11.613Z,49.90
2022-12-18T17:56:38.688Z,49.64
2022-12-18T17:59:07.158Z,49.55
2022-12-18T18:01:38.388Z,49.49
2022-12-18T18:04:08.097Z,49.41
2022-12-18T18:06:38.781Z,50.27
2022-12-18T18:09:07.235Z,50.10
2022-12-18T18:12:00.408Z,50.37
2022-12-18T18:14:27.592Z,50.11
2022-12-18T18:16:54.858Z,49.98
2022-12-18T18:19:25.088Z,50.63
2022-12-18T18:21:53.921Z,50.57
2022-12-18T18:24:25.837Z,50.46
2022-12-18T18:26:52.687Z,50.02
2022-12-18T18:29:26.607Z,50.79
2022-12-18T18:31:54.556Z,50.13
2022-12-18T18:34:28.715Z,49.90
2022-12-18T18:36:57.079Z,49.58
2022-12-18T18:39:24.482Z,49.44
2022-12-18T18:41:51.734Z,49.46
2022-12-18T18:44:25.739Z,49.48
2022-12-18T18:46:57.362Z,49.78
2022-12-18T18:49:27.454Z,49.83
2022-12-18T18:51:56.801Z,51.02
2022-12-18T18:54:24.300Z,50.42
2022-12-18T18:59:38.130Z,50.13
2022-12-18T19:02:06.722Z,50.03
2022-12-18T19:04:34.409Z,50.38
2022-12-18T19:07:01.388Z,50.61
2022-12-18T19:09:28.846Z,50.31
2022-12-18T19:12:14.398Z,50.73
2022-12-18T19:14:44.341Z,50.94
2022-12-18T19:17:11.061Z,51.02
2022-12-18T19:19:38.197Z,51.54
2022-12-18T19:22:05.228Z,51.43
2022-12-18T19:24:32.491Z,52.05
2022-12-18T19:27:00.312Z,51.92
2022-12-18T19:29:27.049Z,51.96
2022-12-18T19:31:53.873Z,51.05
2022-12-18T19:34:20.581Z,51.30
2022-12-18T19:36:47.737Z,53.10
2022-12-18T19:39:17.961Z,52.91
2022-12-18T19:41:46.567Z,51.84
2022-12-18T19:44:15.358Z,51.06
2022-12-18T19:46:43.309Z,51.36
2022-12-18T19:49:11.138Z,52.68
2022-12-18T19:51:38.867Z,52.12
2022-12-18T19:54:13.288Z,52.01
2022-12-18T19:56:43.605Z,52.79
2022-12-18T19:59:10.338Z,51.91
2022-12-18T20:01:37.515Z,52.15
2022-12-18T20:04:04.836Z,51.77
2022-12-18T20:06:46.343Z,52.38
2022-12-18T20:09:13.066Z,51.57
2022-12-18T20:11:41.917Z,52.00
2022-12-18T20:14:10.685Z,51.79
2022-12-18T20:16:37.601Z,52.48
2022-12-18T20:19:05.273Z,52.59
2022-12-18T20:21:32.269Z,52.71
2022-12-18T20:24:01.182Z,52.70
2022-12-18T20:26:28.313Z,52.38
2022-12-18T20:28:55.721Z,52.34
2022-12-18T20:31:22.982Z,52.65
2022-12-18T20:33:51.186Z,52.10
2022-12-18T20:36:24.719Z,52.35
2022-12-18T20:38:57.322Z,52.22
2022-12-18T20:41:31.044Z,52.57
2022-12-18T20:44:21.491Z,54.73
2022-12-18T20:46:52.762Z,53.83
2022-12-18T20:49:19.955Z,52.02
2022-12-18T20:51:51.165Z,52.55
2022-12-18T20:54:20.003Z,51.86
2022-12-18T20:56:46.936Z,51.78
2022-12-18T20:59:13.677Z,51.52
2022-12-18T21:01:47.443Z,51.58
2022-12-18T21:04:17.514Z,52.08
2022-12-18T21:06:51.257Z,52.17
2022-12-18T21:09:20.621Z,52.94
2022-12-18T21:12:05.848Z,53.26
2022-12-18T21:14:34.788Z,53.78
2022-12-18T21:17:02.137Z,53.64
2022-12-18T21:19:29.571Z,53.43
2022-12-18T21:21:56.830Z,53.16
2022-12-18T21:24:25.070Z,53.17
2022-12-18T21:26:52.142Z,53.17
2022-12-18T21:29:24.761Z,53.40
2022-12-18T21:31:54.134Z,52.98
2022-12-18T21:34:25.623Z,53.26
2022-12-18T21:36:54.919Z,53.47
2022-12-18T21:39:22.832Z,53.25
2022-12-18T21:42:09.402Z,53.84
2022-12-18T21:44:41.617Z,53.92
2022-12-18T21:47:22.126Z,54.06
2022-12-18T21:49:53.585Z,54.42
2022-12-18T21:52:31.694Z,54.58
2022-12-18T21:55:09.152Z,54.94
2022-12-18T21:57:37.878Z,54.90
2022-12-18T22:00:07.702Z,54.13
2022-12-18T22:02:40.474Z,54.71
2022-12-18T22:05:08.152Z,54.51
2022-12-18T22:07:34.932Z,55.08
2022-12-18T22:10:02.197Z,55.11
2022-12-18T22:12:35.604Z,54.89
2022-12-18T22:15:10.007Z,55.02
2022-12-18T22:17:37.777Z,54.33
2022-12-18T22:20:04.988Z,55.19
2022-12-18T22:22:31.837Z,55.37
2022-12-18T22:24:58.525Z,55.17
2022-12-18T22:27:25.268Z,54.76
2022-12-18T22:30:04.358Z,54.29
2022-12-18T22:32:35.874Z,55.11
2022-12-18T22:35:09.399Z,55.55
2022-12-18T22:37:37.534Z,55.32
2022-12-18T22:40:06.196Z,55.33
2022-12-18T22:42:34.456Z,54.96
2022-12-18T22:45:01.381Z,55.87
2022-12-18T22:47:30.495Z,55.48
2022-12-18T22:49:58.627Z,55.70
2022-12-18T22:52:25.817Z,54.96
2022-12-18T22:54:53.978Z,55.25
2022-12-18T22:57:22.174Z,54.31
2022-12-18T22:59:50.188Z,54.05
2022-12-18T23:02:18.092Z,53.95
2022-12-18T23:04:45.567Z,53.93
2022-12-18T23:07:12.599Z,54.17
2022-12-18T23:09:39.903Z,54.22
2022-12-18T23:12:06.919Z,54.22
2022-12-18T23:14:33.722Z,53.36
2022-12-18T23:17:00.641Z,54.10
2022-12-18T23:19:27.483Z,54.30
2022-12-18T23:21:57.104Z,54.35
2022-12-18T23:24:28.430Z,54.58
2022-12-18T23:26:59.398Z,54.28
2022-12-18T23:29:26.056Z,54.53
2022-12-18T23:31:52.979Z,53.97
2022-12-18T23:34:19.854Z,53.57
2022-12-18T23:36:47.880Z,53.33
2022-12-18T23:39:28.886Z,53.19
2022-12-18T23:42:00.699Z,53.44
2022-12-18T23:44:28.001Z,53.38
2022-12-18T23:46:56.034Z,53.32
2022-12-18T23:49:23.007Z,52.93
2022-12-18T23:51:50.204Z,53.72
2022-12-18T23:54:17.040Z,52.64
2022-12-18T23:56:47.780Z,53.49
2022-12-18T23:59:14.649Z,53.50
